Time;durP1;ratioP1;P1;durP2;ratioP2;P2;SDS_P1;SDS_P2;PMS_P1;PMS_P2;Temp;Humidity;BMP_temperature;BMP_pressure;BME280_temperature;BME280_humidity;BME280_pressure;Samples;Min_cycle;Max_cycle;Signal;HPM_P1;HPM_P2
2024/01/25 00:02:08;;;;;;;27.27;6.00;;;;;;;;;;5095007;28;20396;-86
2024/01/25 00:04:34;;;;;;;33.97;7.20;;;;;;;;;;5090918;28;20416;-86
2024/01/25 00:07:00;;;;;;;36.80;7.22;;;;;;;;;;5095340;27;20914;-85
2024/01/25 00:09:26;;;;;;;30.58;6.55;;;;;;;;;;5125544;27;20460;-86
2024/01/25 00:11:52;;;;;;;33.47;6.13;;;;;;;;;;5081559;28;20503;-86
2024/01/25 00:14:19;;;;;;;38.40;7.25;;;;;;;;;;5088706;28;20400;-86
2024/01/25 00:16:45;;;;;;;31.05;7.05;;;;;;;;;;5077961;28;20417;-86
2024/01/25 00:19:11;;;;;;;35.33;6.87;;;;;;;;;;5090462;28;20418;-86
2024/01/25 00:21:43;;;;;;;30.73;6.28;;;;;;;;;;5121468;27;20435;-86
2024/01/25 00:24:09;;;;;;;30.98;6.50;;;;;;;;;;5094922;28;20385;-86
2024/01/25 00:26:35;;;;;;;33.60;5.97;;;;;;;;;;5092778;28;20396;-86
2024/01/25 00:29:06;;;;;;;27.00;5.95;;;;;;;;;;5111352;27;20487;-86
2024/01/25 00:31:32;;;;;;;35.13;6.95;;;;;;;;;;5080246;27;20477;-86
2024/01/25 00:34:06;;;;;;;34.92;6.10;;;;;;;;;;5077788;28;20440;-86
2024/01/25 00:36:35;;;;;;;38.38;7.28;;;;;;;;;;5075647;28;20424;-86
2024/01/25 00:39:01;;;;;;;31.37;6.83;;;;;;;;;;5112443;28;20404;-86
2024/01/25 00:41:30;;;;;;;32.40;7.00;;;;;;;;;;5108414;27;20489;-86
2024/01/25 00:43:56;;;;;;;39.65;7.65;;;;;;;;;;5100969;28;20403;-86
2024/01/25 00:46:22;;;;;;;37.25;7.55;;;;;;;;;;5092767;28;20405;-86
2024/01/25 00:48:48;;;;;;;36.45;7.22;;;;;;;;;;5090913;28;20433;-86
2024/01/25 00:51:16;;;;;;;33.60;6.53;;;;;;;;;;5104418;28;20401;-86
2024/01/25 00:53:45;;;;;;;31.23;6.32;;;;;;;;;;5100223;28;20761;-86
2024/01/25 00:56:18;;;;;;;26.85;5.45;;;;;;;;;;5094054;27;20429;-86
2024/01/25 00:58:45;;;;;;;31.02;6.20;;;;;;;;;;5120555;27;20400;-86
2024/01/25 01:01:11;;;;;;;32.63;6.73;;;;;;;;;;5094007;28;20794;-85
2024/01/25 01:03:37;;;;;;;36.85;7.85;;;;;;;;;;5110927;28;20472;-85
2024/01/25 01:06:04;;;;;;;33.80;6.35;;;;;;;;;;5106359;28;20444;-85
2024/01/25 01:08:32;;;;;;;36.58;7.60;;;;;;;;;;5085240;28;20410;-85
2024/01/25 01:10:58;;;;;;;33.90;5.78;;;;;;;;;;5076225;28;20432;-85
2024/01/25 01:13:25;;;;;;;30.87;6.63;;;;;;;;;;5077340;28;20392;-86
2024/01/25 01:15:51;;;;;;;35.03;6.82;;;;;;;;;;5093414;28;20813;-86
2024/01/25 01:18:17;;;;;;;35.43;6.90;;;;;;;;;;5113995;28;20519;-85
2024/01/25 01:20:43;;;;;;;37.80;6.47;;;;;;;;;;5104426;28;20791;-86
2024/01/25 01:23:09;;;;;;;36.22;7.32;;;;;;;;;;5094291;28;20475;-86
2024/01/25 01:25:35;;;;;;;32.65;7.00;;;;;;;;;;5103491;28;20396;-86
2024/01/25 01:28:01;;;;;;;37.50;6.70;;;;;;;;;;5129853;27;20505;-86
2024/01/25 01:30:30;;;;;;;39.97;6.60;;;;;;;;;;5107200;28;20414;-86
2024/01/25 01:32:57;;;;;;;32.70;7.20;;;;;;;;;;5090245;28;20409;-86
2024/01/25 01:35:23;;;;;;;40.80;6.88;;;;;;;;;;5107189;28;21001;-86
2024/01/25 01:37:49;;;;;;;34.80;6.60;;;;;;;;;;5101374;28;20420;-86
2024/01/25 01:40:15;;;;;;;35.80;6.85;;;;;;;;;;5110021;27;20433;-86
2024/01/25 01:42:41;;;;;;;40.00;7.07;;;;;;;;;;5105122;28;20896;-86
2024/01/25 01:45:07;;;;;;;33.75;6.50;;;;;;;;;;5136109;27;20422;-86
2024/01/25 01:47:33;;;;;;;32.67;6.20;;;;;;;;;;5099471;28;20884;-86
2024/01/25 01:50:00;;;;;;;43.00;7.00;;;;;;;;;;5093595;28;20404;-86
2024/01/25 01:52:26;;;;;;;42.25;7.22;;;;;;;;;;5091941;28;20447;-86
2024/01/25 01:54:52;;;;;;;41.60;7.07;;;;;;;;;;5106574;28;20404;-86
2024/01/25 01:57:18;;;;;;;36.60;6.68;;;;;;;;;;5123660;27;20497;-85
2024/01/25 01:59:48;;;;;;;35.97;7.30;;;;;;;;;;5093395;28;20793;-86
2024/01/25 02:02:17;;;;;;;34.60;6.65;;;;;;;;;;5095182;28;20419;-86
2024/01/25 02:04:44;;;;;;;39.45;7.75;;;;;;;;;;5110898;27;20447;-87
2024/01/25 02:07:14;;;;;;;40.97;7.22;;;;;;;;;;5089417;28;20491;-86
2024/01/25 02:09:40;;;;;;;42.83;7.53;;;;;;;;;;5077083;28;20889;-86
2024/01/25 02:12:18;;;;;;;48.17;8.02;;;;;;;;;;5121848;27;20411;-86
2024/01/25 02:14:44;;;;;;;38.40;7.55;;;;;;;;;;5087748;28;20749;-86
2024/01/25 02:17:19;;;;;;;35.30;6.72;;;;;;;;;;5088084;28;20420;-86
2024/01/25 02:19:45;;;;;;;47.72;8.20;;;;;;;;;;5096458;28;20419;-86
2024/01/25 02:22:12;;;;;;;39.92;7.30;;;;;;;;;;5096435;28;20871;-86
2024/01/25 02:24:38;;;;;;;42.60;7.67;;;;;;;;;;5113267;27;20403;-86
2024/01/25 02:27:05;;;;;;;39.10;7.78;;;;;;;;;;5138008;27;20439;-86
2024/01/25 02:29:31;;;;;;;40.28;7.07;;;;;;;;;;5093017;28;20438;-86
2024/01/25 02:31:59;;;;;;;49.47;7.25;;;;;;;;;;5093232;28;20429;-86
2024/01/25 02:34:25;;;;;;;40.72;7.47;;;;;;;;;;5126221;27;20422;-86
2024/01/25 02:36:52;;;;;;;39.37;7.23;;;;;;;;;;5096080;28;20769;-86
2024/01/25 02:39:18;;;;;;;37.22;6.80;;;;;;;;;;5095770;27;20900;-86
2024/01/25 02:41:44;;;;;;;42.55;7.22;;;;;;;;;;5128804;27;20465;-86
2024/01/25 02:44:13;;;;;;;46.05;8.35;;;;;;;;;;5078666;28;20522;-86
2024/01/25 02:46:39;;;;;;;45.78;7.10;;;;;;;;;;5109960;28;20459;-86
2024/01/25 02:49:05;;;;;;;37.05;7.25;;;;;;;;;;5116104;27;20412;-86
2024/01/25 02:51:31;;;;;;;40.95;7.82;;;;;;;;;;5094894;28;20817;-86
2024/01/25 02:53:57;;;;;;;48.25;8.18;;;;;;;;;;5139489;27;20526;-87
2024/01/25 02:56:23;;;;;;;41.05;7.53;;;;;;;;;;5094419;28;20420;-86
2024/01/25 02:58:49;;;;;;;42.33;7.75;;;;;;;;;;5096740;28;20400;-86
2024/01/25 03:01:15;;;;;;;41.70;7.70;;;;;;;;;;5141110;27;20951;-86
2024/01/25 03:03:41;;;;;;;36.60;7.13;;;;;;;;;;5096137;28;20435;-86
2024/01/25 03:06:09;;;;;;;37.63;7.75;;;;;;;;;;5139784;27;20408;-86
2024/01/25 03:08:35;;;;;;;37.78;8.02;;;;;;;;;;5128336;27;20763;-87
2024/01/25 03:11:03;;;;;;;41.60;7.65;;;;;;;;;;5082471;28;20420;-86
2024/01/25 03:13:31;;;;;;;39.70;7.75;;;;;;;;;;5112919;27;20410;-87
2024/01/25 03:15:58;;;;;;;47.47;8.50;;;;;;;;;;5130301;27;20400;-86
2024/01/25 03:18:24;;;;;;;45.10;8.02;;;;;;;;;;5095402;28;20768;-87
2024/01/25 03:20:51;;;;;;;44.60;7.78;;;;;;;;;;5083907;28;20401;-87
2024/01/25 03:23:17;;;;;;;44.75;7.82;;;;;;;;;;5103945;28;20589;-87
2024/01/25 03:25:43;;;;;;;47.53;9.38;;;;;;;;;;5122652;27;20398;-86
2024/01/25 03:28:11;;;;;;;40.65;7.35;;;;;;;;;;5125647;27;20407;-86
2024/01/25 03:30:37;;;;;;;43.85;7.32;;;;;;;;;;5095687;28;20439;-87
2024/01/25 03:33:03;;;;;;;40.45;7.68;;;;;;;;;;5112542;27;20822;-86
2024/01/25 03:35:29;;;;;;;46.50;7.23;;;;;;;;;;5112349;28;20543;-86
2024/01/25 03:37:55;;;;;;;47.38;8.35;;;;;;;;;;5138936;27;20460;-86
2024/01/25 03:40:21;;;;;;;44.70;8.00;;;;;;;;;;5109165;28;20414;-86
2024/01/25 03:42:50;;;;;;;40.75;7.70;;;;;;;;;;5102441;28;20403;-86
2024/01/25 03:45:16;;;;;;;44.88;7.75;;;;;;;;;;5091923;28;20406;-86
2024/01/25 03:47:47;;;;;;;50.38;7.82;;;;;;;;;;5078878;27;20412;-86
2024/01/25 03:50:14;;;;;;;40.47;8.32;;;;;;;;;;5095495;28;20408;-86
2024/01/25 03:52:40;;;;;;;45.83;7.28;;;;;;;;;;5095327;28;20868;-86
2024/01/25 03:55:07;;;;;;;41.60;7.33;;;;;;;;;;5095540;28;20568;-86
2024/01/25 03:57:33;;;;;;;48.53;7.47;;;;;;;;;;5091511;28;20413;-86
2024/01/25 03:59:59;;;;;;;50.50;8.40;;;;;;;;;;5123330;27;20398;-86
2024/01/25 04:02:25;;;;;;;45.13;8.20;;;;;;;;;;5130377;27;20507;-86
2024/01/25 04:04:51;;;;;;;38.67;7.03;;;;;;;;;;5090859;28;20406;-86
2024/01/25 04:07:17;;;;;;;48.67;8.10;;;;;;;;;;5105724;28;20907;-86
2024/01/25 04:09:43;;;;;;;40.17;7.43;;;;;;;;;;5095011;28;20404;-86
2024/01/25 04:12:09;;;;;;;50.78;7.97;;;;;;;;;;5092284;28;20396;-86
2024/01/25 04:14:36;;;;;;;39.03;7.18;;;;;;;;;;5093348;28;20424;-86
2024/01/25 04:17:02;;;;;;;46.72;7.93;;;;;;;;;;5085502;28;20426;-86
2024/01/25 04:19:28;;;;;;;40.55;7.93;;;;;;;;;;5094307;28;20411;-87
2024/01/25 04:21:54;;;;;;;45.92;8.20;;;;;;;;;;5134740;27;20905;-87
2024/01/25 04:24:20;;;;;;;40.13;8.50;;;;;;;;;;5090728;28;20403;-86
2024/01/25 04:26:46;;;;;;;41.75;8.05;;;;;;;;;;5078065;28;20411;-86
2024/01/25 04:29:15;;;;;;;44.73;8.00;;;;;;;;;;5077027;28;20826;-86
2024/01/25 04:31:48;;;;;;;41.70;7.65;;;;;;;;;;5101481;28;20424;-86
2024/01/25 04:34:14;;;;;;;48.13;8.45;;;;;;;;;;5089534;28;20936;-86
2024/01/25 04:36:40;;;;;;;42.45;7.95;;;;;;;;;;5095227;27;20486;-86
2024/01/25 04:39:06;;;;;;;47.17;8.90;;;;;;;;;;5107859;27;20413;-86
2024/01/25 04:41:33;;;;;;;45.85;7.75;;;;;;;;;;5091588;28;20394;-86
2024/01/25 04:43:59;;;;;;;44.85;7.25;;;;;;;;;;5128973;27;20763;-86
2024/01/25 04:46:26;;;;;;;44.67;6.97;;;;;;;;;;5086833;28;20500;-86
2024/01/25 04:48:52;;;;;;;49.50;8.03;;;;;;;;;;5078415;28;20398;-86
2024/01/25 04:51:20;;;;;;;39.92;6.97;;;;;;;;;;5104172;28;20912;-86
2024/01/25 04:53:48;;;;;;;50.30;8.70;;;;;;;;;;5092014;28;20530;-86
2024/01/25 04:56:14;;;;;;;43.17;7.43;;;;;;;;;;5087162;28;20428;-86
2024/01/25 04:58:40;;;;;;;45.33;7.05;;;;;;;;;;5096505;28;20454;-86
2024/01/25 05:01:07;;;;;;;51.65;8.25;;;;;;;;;;5105799;28;20400;-86
2024/01/25 05:03:33;;;;;;;45.03;8.23;;;;;;;;;;5132136;27;20473;-86
2024/01/25 05:05:59;;;;;;;46.83;8.90;;;;;;;;;;5099963;28;20424;-86
2024/01/25 05:08:25;;;;;;;40.33;6.95;;;;;;;;;;5090695;28;20985;-86
2024/01/25 05:10:52;;;;;;;46.90;8.30;;;;;;;;;;5110272;28;20914;-86
2024/01/25 05:13:18;;;;;;;41.13;7.53;;;;;;;;;;5093936;28;20426;-86
2024/01/25 05:15:44;;;;;;;38.95;7.60;;;;;;;;;;5093687;28;20400;-86
2024/01/25 05:18:10;;;;;;;47.38;7.95;;;;;;;;;;5106608;28;20497;-87
2024/01/25 05:20:37;;;;;;;48.42;8.45;;;;;;;;;;5090493;28;20402;-86
2024/01/25 05:23:04;;;;;;;60.67;9.35;;;;;;;;;;5119567;28;20393;-86
2024/01/25 05:25:39;;;;;;;47.25;8.50;;;;;;;;;;5092399;28;20401;-86
2024/01/25 05:28:05;;;;;;;46.15;7.90;;;;;;;;;;5105577;28;20870;-86
2024/01/25 05:30:32;;;;;;;53.40;9.53;;;;;;;;;;5090706;28;20417;-86
2024/01/25 05:32:58;;;;;;;45.45;8.02;;;;;;;;;;5102616;28;20464;-86
2024/01/25 05:35:24;;;;;;;48.42;8.48;;;;;;;;;;5088640;27;20711;-87
2024/01/25 05:37:50;;;;;;;52.60;9.65;;;;;;;;;;5135961;27;20517;-86
2024/01/25 05:40:17;;;;;;;62.38;10.00;;;;;;;;;;5101125;28;20807;-86
2024/01/25 05:42:43;;;;;;;56.13;9.35;;;;;;;;;;5098233;28;20545;-87
2024/01/25 05:45:09;;;;;;;49.85;9.50;;;;;;;;;;5146232;27;20400;-86
2024/01/25 05:47:35;;;;;;;57.50;9.70;;;;;;;;;;5130440;27;20495;-86
2024/01/25 05:50:02;;;;;;;50.92;9.00;;;;;;;;;;5078765;28;20505;-86
2024/01/25 05:52:29;;;;;;;48.35;8.80;;;;;;;;;;5085225;28;20880;-86
2024/01/25 05:54:55;;;;;;;54.90;9.40;;;;;;;;;;5097011;27;20450;-86
2024/01/25 05:57:21;;;;;;;48.78;8.90;;;;;;;;;;5098236;28;20423;-85
2024/01/25 05:59:47;;;;;;;58.00;9.13;;;;;;;;;;5095301;28;20400;-85
2024/01/25 06:02:14;;;;;;;56.55;8.60;;;;;;;;;;5091255;28;20423;-85
2024/01/25 06:04:43;;;;;;;50.50;9.10;;;;;;;;;;5097933;28;20480;-85
2024/01/25 06:07:10;;;;;;;57.20;9.75;;;;;;;;;;5092965;27;20812;-85
2024/01/25 06:09:36;;;;;;;49.00;8.43;;;;;;;;;;5079823;28;20419;-85
2024/01/25 06:12:05;;;;;;;52.05;9.15;;;;;;;;;;5087863;28;20399;-86
2024/01/25 06:14:31;;;;;;;50.10;7.90;;;;;;;;;;5123320;27;20554;-85
2024/01/25 06:16:57;;;;;;;49.53;8.93;;;;;;;;;;5103858;28;20442;-86
2024/01/25 06:19:23;;;;;;;55.88;8.70;;;;;;;;;;5021879;28;20393;-85
2024/01/25 06:21:50;;;;;;;56.03;10.50;;;;;;;;;;5044512;28;20924;-85
2024/01/25 06:24:16;;;;;;;66.13;9.93;;;;;;;;;;5056900;28;20858;-86
2024/01/25 06:26:42;;;;;;;52.50;8.90;;;;;;;;;;5048114;28;20409;-86
2024/01/25 06:29:08;;;;;;;58.95;8.30;;;;;;;;;;5036208;28;20521;-86
2024/01/25 06:31:40;;;;;;;55.70;9.27;;;;;;;;;;5045835;28;20542;-85
2024/01/25 06:34:10;;;;;;;53.38;9.30;;;;;;;;;;5073169;28;20408;-85
2024/01/25 06:36:36;;;;;;;53.65;9.30;;;;;;;;;;5053820;28;20428;-85
2024/01/25 06:39:04;;;;;;;45.90;8.33;;;;;;;;;;5056777;28;20442;-85
2024/01/25 06:41:30;;;;;;;51.13;8.77;;;;;;;;;;5057428;28;20461;-85
2024/01/25 06:43:56;;;;;;;52.97;8.60;;;;;;;;;;5073393;28;20404;-85
2024/01/25 06:46:22;;;;;;;60.40;9.00;;;;;;;;;;5054710;28;20431;-85
2024/01/25 06:48:49;;;;;;;56.35;10.10;;;;;;;;;;5072845;28;20464;-85
2024/01/25 06:51:15;;;;;;;48.37;8.63;;;;;;;;;;5071996;28;20941;-85
2024/01/25 06:53:41;;;;;;;76.90;10.23;;;;;;;;;;5056284;28;20414;-86
2024/01/25 06:56:08;;;;;;;63.53;9.07;;;;;;;;;;5071985;28;20407;-85
2024/01/25 06:58:34;;;;;;;51.77;8.80;;;;;;;;;;5036005;28;20474;-85
2024/01/25 07:01:00;;;;;;;53.65;9.25;;;;;;;;;;5060374;28;20893;-85
2024/01/25 07:03:26;;;;;;;55.15;9.35;;;;;;;;;;5060738;28;20974;-85
2024/01/25 07:05:55;;;;;;;53.90;9.10;;;;;;;;;;5047182;28;20430;-84
2024/01/25 07:08:21;;;;;;;52.22;8.63;;;;;;;;;;5056515;28;20420;-84
2024/01/25 07:10:47;;;;;;;48.30;9.02;;;;;;;;;;5049150;28;20756;-85
2024/01/25 07:13:13;;;;;;;64.43;10.02;;;;;;;;;;5054189;28;20508;-86
2024/01/25 07:15:40;;;;;;;58.75;9.32;;;;;;;;;;5071745;28;20400;-86
2024/01/25 07:18:06;;;;;;;59.15;9.50;;;;;;;;;;5069057;28;20479;-86
2024/01/25 07:20:32;;;;;;;60.92;8.98;;;;;;;;;;5080272;28;20479;-87
2024/01/25 07:22:58;;;;;;;57.65;9.52;;;;;;;;;;5092510;28;20405;-87
2024/01/25 07:25:24;;;;;;;50.38;8.73;;;;;;;;;;5102692;28;20457;-87
2024/01/25 07:27:50;;;;;;;52.30;8.93;;;;;;;;;;5095774;28;20477;-87
2024/01/25 07:30:16;;;;;;;48.70;9.20;;;;;;;;;;5136390;27;20523;-87
2024/01/25 07:32:42;;;;;;;50.47;8.80;;;;;;;;;;5096640;27;20439;-87
2024/01/25 07:35:12;;;;;;;49.08;9.23;;;;;;;;;;5086711;27;20826;-87
2024/01/25 07:37:39;;;;;;;59.23;9.43;;;;;;;;;;5082873;28;20472;-86
2024/01/25 07:40:06;;;;;;;54.75;10.15;;;;;;;;;;5075111;28;20401;-86
2024/01/25 07:42:32;;;;;;;59.53;10.40;;;;;;;;;;5097745;28;20429;-86
2024/01/25 07:44:58;;;;;;;58.17;10.50;;;;;;;;;;5110502;27;20426;-86
2024/01/25 07:47:24;;;;;;;56.80;9.00;;;;;;;;;;5089053;28;20410;-86
2024/01/25 07:49:50;;;;;;;55.72;9.68;;;;;;;;;;5109958;27;20488;-87
2024/01/25 07:52:16;;;;;;;44.33;8.50;;;;;;;;;;5108883;27;20754;-87
2024/01/25 07:54:42;;;;;;;59.65;9.55;;;;;;;;;;5128372;27;20487;-87
2024/01/25 07:57:08;;;;;;;54.13;9.18;;;;;;;;;;5103865;28;20457;-86
2024/01/25 07:59:34;;;;;;;51.40;8.93;;;;;;;;;;5121552;27;20809;-85
2024/01/25 08:02:01;;;;;;;54.90;9.55;;;;;;;;;;5140193;27;20484;-86
2024/01/25 08:04:29;;;;;;;56.90;9.55;;;;;;;;;;5107892;27;20492;-86
2024/01/25 08:06:56;;;;;;;53.42;9.07;;;;;;;;;;5078833;27;20535;-87
2024/01/25 08:09:22;;;;;;;58.08;9.65;;;;;;;;;;5111992;28;20416;-86
2024/01/25 08:11:48;;;;;;;52.88;9.57;;;;;;;;;;5079743;28;20406;-86
2024/01/25 08:14:14;;;;;;;56.38;10.15;;;;;;;;;;5123706;27;20917;-86
2024/01/25 08:16:42;;;;;;;51.97;9.30;;;;;;;;;;5084303;28;20428;-87
2024/01/25 08:19:08;;;;;;;52.08;9.85;;;;;;;;;;5103082;28;20902;-86
2024/01/25 08:21:35;;;;;;;53.85;9.88;;;;;;;;;;5099247;27;20446;-87
2024/01/25 08:24:02;;;;;;;56.28;9.95;;;;;;;;;;5105577;27;20459;-86
2024/01/25 08:26:28;;;;;;;58.67;9.63;;;;;;;;;;5137101;27;20479;-86
2024/01/25 08:28:54;;;;;;;54.33;9.50;;;;;;;;;;5087844;28;20418;-86
2024/01/25 08:31:20;;;;;;;53.43;9.87;;;;;;;;;;5081911;28;20409;-87
2024/01/25 08:33:47;;;;;;;56.40;10.45;;;;;;;;;;5088992;28;20396;-86
2024/01/25 08:36:19;;;;;;;52.30;9.68;;;;;;;;;;5115283;27;20394;-86
2024/01/25 08:38:45;;;;;;;53.33;10.05;;;;;;;;;;5104122;27;20414;-87
2024/01/25 08:41:14;;;;;;;63.20;10.05;;;;;;;;;;5108032;27;20394;-87
2024/01/25 08:43:40;;;;;;;52.72;10.48;;;;;;;;;;5108347;27;20499;-86
2024/01/25 08:46:06;;;;;;;60.57;9.53;;;;;;;;;;5112582;27;20439;-86
2024/01/25 08:48:32;;;;;;;50.75;9.43;;;;;;;;;;5102753;27;20494;-86
2024/01/25 08:50:58;;;;;;;52.92;9.90;;;;;;;;;;5129065;27;20396;-87
2024/01/25 08:53:27;;;;;;;61.10;9.70;;;;;;;;;;5143463;27;20419;-85
2024/01/25 08:55:56;;;;;;;47.47;9.00;;;;;;;;;;5134300;27;20406;-86
2024/01/25 08:58:22;;;;;;;57.65;10.20;;;;;;;;;;5086006;28;20794;-86
2024/01/25 09:00:49;;;;;;;50.53;10.13;;;;;;;;;;5097077;28;20812;-86
2024/01/25 09:03:15;;;;;;;56.08;10.27;;;;;;;;;;5107548;28;20403;-85
2024/01/25 09:05:44;;;;;;;54.75;10.13;;;;;;;;;;5116719;27;20440;-86
2024/01/25 09:08:12;;;;;;;51.87;9.93;;;;;;;;;;5117412;27;20402;-86
2024/01/25 09:10:38;;;;;;;54.33;9.70;;;;;;;;;;5094072;28;20404;-86
2024/01/25 09:13:04;;;;;;;54.53;11.40;;;;;;;;;;5138078;27;20449;-83
2024/01/25 09:15:30;;;;;;;47.17;10.00;;;;;;;;;;5082677;27;20479;-82
2024/01/25 09:17:58;;;;;;;60.80;11.07;;;;;;;;;;5066508;28;23158;-81
2024/01/25 09:20:25;;;;;;;61.50;10.15;;;;;;;;;;5107467;27;20416;-79
2024/01/25 09:22:55;;;;;;;45.47;9.68;;;;;;;;;;5099928;28;20887;-83
2024/01/25 09:25:21;;;;;;;58.83;10.60;;;;;;;;;;5093871;28;20388;-80
2024/01/25 09:27:47;;;;;;;56.92;10.35;;;;;;;;;;5108542;28;20426;-81
2024/01/25 09:30:14;;;;;;;44.65;9.48;;;;;;;;;;5088586;28;20428;-80
2024/01/25 09:32:40;;;;;;;47.13;9.25;;;;;;;;;;5094812;28;20762;-82
2024/01/25 09:35:08;;;;;;;43.55;9.85;;;;;;;;;;5131133;27;20753;-82
2024/01/25 09:37:34;;;;;;;47.45;9.63;;;;;;;;;;5090408;28;20448;-86
2024/01/25 09:40:00;;;;;;;57.67;9.02;;;;;;;;;;5133377;27;20423;-85
2024/01/25 09:42:27;;;;;;;57.20;9.77;;;;;;;;;;5139976;27;20455;-86
2024/01/25 09:44:54;;;;;;;52.15;9.73;;;;;;;;;;5092833;28;20431;-86
2024/01/25 09:47:21;;;;;;;48.78;10.50;;;;;;;;;;5088415;28;20406;-84
2024/01/25 09:49:47;;;;;;;46.28;8.88;;;;;;;;;;5117214;27;20484;-86
2024/01/25 09:52:13;;;;;;;46.08;8.95;;;;;;;;;;5137089;27;20497;-86
2024/01/25 09:54:40;;;;;;;47.33;8.82;;;;;;;;;;5134613;27;20392;-85
2024/01/25 09:57:16;;;;;;;53.22;9.38;;;;;;;;;;5105059;28;20422;-85
2024/01/25 09:59:42;;;;;;;45.75;9.32;;;;;;;;;;5138813;27;20738;-85
2024/01/25 10:02:09;;;;;;;46.17;9.37;;;;;;;;;;5077050;28;20777;-86
2024/01/25 10:04:35;;;;;;;43.88;9.02;;;;;;;;;;5094681;28;20416;-85
2024/01/25 10:07:01;;;;;;;42.17;9.27;;;;;;;;;;5091493;28;20407;-84
2024/01/25 10:09:27;;;;;;;49.95;9.23;;;;;;;;;;5084614;28;20413;-84
2024/01/25 10:11:54;;;;;;;48.30;8.65;;;;;;;;;;5092367;28;20465;-84
2024/01/25 10:14:20;;;;;;;43.60;8.60;;;;;;;;;;5145177;27;20689;-87
2024/01/25 10:16:46;;;;;;;44.65;9.15;;;;;;;;;;5072745;28;20426;-86
2024/01/25 10:19:12;;;;;;;45.35;9.63;;;;;;;;;;5118514;27;20440;-86
2024/01/25 10:21:42;;;;;;;46.25;9.35;;;;;;;;;;5097130;28;20400;-85
2024/01/25 10:24:08;;;;;;;45.17;9.90;;;;;;;;;;5138897;27;20422;-85
2024/01/25 10:26:34;;;;;;;46.03;10.00;;;;;;;;;;5112988;27;20453;-84
2024/01/25 10:29:02;;;;;;;49.17;9.20;;;;;;;;;;5105634;27;20419;-85
2024/01/25 10:31:29;;;;;;;50.92;10.07;;;;;;;;;;5097147;28;20433;-85
2024/01/25 10:33:56;;;;;;;47.85;9.65;;;;;;;;;;5127110;27;20401;-86
2024/01/25 10:36:22;;;;;;;40.10;8.95;;;;;;;;;;5118554;27;20397;-88
2024/01/25 10:38:50;;;;;;;47.65;10.18;;;;;;;;;;5109824;27;20408;-89
2024/01/25 10:41:16;;;;;;;43.42;9.25;;;;;;;;;;5099274;28;20430;-87
2024/01/25 10:43:42;;;;;;;41.00;8.57;;;;;;;;;;5084780;28;20428;-89
2024/01/25 10:46:09;;;;;;;40.22;8.48;;;;;;;;;;5124110;27;20802;-87
2024/01/25 10:48:35;;;;;;;37.42;8.57;;;;;;;;;;5109175;27;20396;-87
2024/01/25 10:51:04;;;;;;;47.23;9.97;;;;;;;;;;5111116;28;21138;-87
2024/01/25 10:53:32;;;;;;;36.70;8.50;;;;;;;;;;5085685;28;20933;-87
2024/01/25 10:55:59;;;;;;;38.25;8.00;;;;;;;;;;5096923;28;20426;-88
2024/01/25 10:58:25;;;;;;;42.15;9.02;;;;;;;;;;5088486;28;20444;-88
2024/01/25 11:00:52;;;;;;;39.83;9.13;;;;;;;;;;5095685;28;20408;-87
2024/01/25 11:03:20;;;;;;;41.67;8.52;;;;;;;;;;5095274;28;20400;-88
2024/01/25 11:05:47;;;;;;;47.03;9.10;;;;;;;;;;5079862;28;20476;-87
2024/01/25 11:08:20;;;;;;;34.70;8.07;;;;;;;;;;5096206;28;20952;-87
2024/01/25 11:10:54;;;;;;;40.65;8.27;;;;;;;;;;5134965;27;20429;-88
2024/01/25 11:13:27;;;;;;;44.63;8.47;;;;;;;;;;5092589;28;22461;-87
2024/01/25 11:15:53;;;;;;;37.33;8.98;;;;;;;;;;5118212;27;20405;-84
2024/01/25 11:18:19;;;;;;;36.67;8.13;;;;;;;;;;5105460;27;20422;-81
2024/01/25 11:20:48;;;;;;;33.97;7.87;;;;;;;;;;5135349;27;20474;-85
2024/01/25 11:23:16;;;;;;;34.78;8.20;;;;;;;;;;5119647;27;20402;-86
2024/01/25 11:25:45;;;;;;;39.67;8.93;;;;;;;;;;5096324;28;20407;-86
2024/01/25 11:28:11;;;;;;;33.47;7.75;;;;;;;;;;5132846;27;20505;-86
2024/01/25 11:30:37;;;;;;;41.83;9.38;;;;;;;;;;5095595;28;20400;-89
2024/01/25 11:33:10;;;;;;;37.35;8.65;;;;;;;;;;5086501;28;20527;-87
2024/01/25 11:35:36;;;;;;;34.97;8.10;;;;;;;;;;5091526;28;20397;-86
2024/01/25 11:38:03;;;;;;;33.10;8.00;;;;;;;;;;5150180;27;20557;-83
2024/01/25 11:40:31;;;;;;;43.15;8.90;;;;;;;;;;5100155;28;20396;-86
2024/01/25 11:42:57;;;;;;;39.47;9.15;;;;;;;;;;5081340;28;20394;-85
2024/01/25 11:45:26;;;;;;;31.35;8.60;;;;;;;;;;5077508;28;20421;-85
2024/01/25 11:47:55;;;;;;;41.35;7.85;;;;;;;;;;5089314;28;20432;-85
2024/01/25 11:50:22;;;;;;;35.22;8.95;;;;;;;;;;5103026;27;20400;-85
2024/01/25 11:52:48;;;;;;;41.15;8.07;;;;;;;;;;5105716;28;20436;-85
2024/01/25 11:55:14;;;;;;;32.42;7.85;;;;;;;;;;5082241;28;20754;-85
2024/01/25 11:57:43;;;;;;;36.97;8.98;;;;;;;;;;5094422;28;20861;-86
2024/01/25 12:00:12;;;;;;;37.25;8.65;;;;;;;;;;5092611;28;20416;-87
2024/01/25 12:02:39;;;;;;;38.42;8.55;;;;;;;;;;5129426;27;20432;-84
2024/01/25 12:05:05;;;;;;;32.75;8.13;;;;;;;;;;5094828;28;20443;-85
2024/01/25 12:07:32;;;;;;;35.75;8.95;;;;;;;;;;5107992;28;20408;-86
2024/01/25 12:10:08;;;;;;;41.47;8.82;;;;;;;;;;5105929;27;20451;-86
2024/01/25 12:12:38;;;;;;;37.13;8.35;;;;;;;;;;5097219;28;20884;-86
2024/01/25 12:15:07;;;;;;;38.92;8.40;;;;;;;;;;5115053;27;20402;-87
2024/01/25 12:17:39;;;;;;;35.90;9.27;;;;;;;;;;5112685;27;20426;-87
2024/01/25 12:20:10;;;;;;;36.58;8.57;;;;;;;;;;5113805;27;20469;-84
2024/01/25 12:22:37;;;;;;;39.10;9.88;;;;;;;;;;5112759;28;20397;-85
2024/01/25 12:25:07;;;;;;;39.95;8.98;;;;;;;;;;5104384;28;20462;-85
2024/01/25 12:27:33;;;;;;;36.17;10.20;;;;;;;;;;5101510;27;20856;-85
2024/01/25 12:29:59;;;;;;;37.77;10.33;;;;;;;;;;5115045;27;20984;-85
2024/01/25 12:32:25;;;;;;;37.80;10.18;;;;;;;;;;5099241;28;20514;-85
2024/01/25 12:34:58;;;;;;;37.53;9.63;;;;;;;;;;5103655;28;20519;-85
2024/01/25 12:37:24;;;;;;;36.67;8.93;;;;;;;;;;5132028;27;20771;-84
2024/01/25 12:39:52;;;;;;;34.83;8.88;;;;;;;;;;5088867;28;20985;-84
2024/01/25 12:42:18;;;;;;;37.70;8.80;;;;;;;;;;5096484;27;20455;-84
2024/01/25 12:44:45;;;;;;;34.28;9.13;;;;;;;;;;5090735;28;20411;-84
2024/01/25 12:47:12;;;;;;;36.60;9.80;;;;;;;;;;5099633;28;20455;-84
2024/01/25 12:49:42;;;;;;;38.90;9.50;;;;;;;;;;5099232;28;20411;-85
2024/01/25 12:52:09;;;;;;;38.20;8.60;;;;;;;;;;5086258;28;20509;-85
2024/01/25 12:54:35;;;;;;;36.45;8.98;;;;;;;;;;5087292;28;20464;-85
2024/01/25 12:57:01;;;;;;;34.55;8.00;;;;;;;;;;5089333;28;20955;-86
2024/01/25 12:59:28;;;;;;;32.13;8.18;;;;;;;;;;5096975;28;20443;-83
2024/01/25 13:01:56;;;;;;;36.60;8.90;;;;;;;;;;5080208;28;20451;-85
2024/01/25 13:04:22;;;;;;;35.25;7.82;;;;;;;;;;5108917;28;20493;-84
2024/01/25 13:06:48;;;;;;;31.40;8.05;;;;;;;;;;5114453;27;20432;-84
2024/01/25 13:09:15;;;;;;;32.35;7.50;;;;;;;;;;5120821;27;20412;-84
2024/01/25 13:11:44;;;;;;;34.13;8.27;;;;;;;;;;5094608;28;20403;-81
2024/01/25 13:14:13;;;;;;;30.10;8.90;;;;;;;;;;5109151;28;20427;-81
2024/01/25 13:16:39;;;;;;;34.20;7.55;;;;;;;;;;5093545;28;20494;-81
2024/01/25 13:19:05;;;;;;;35.33;8.30;;;;;;;;;;5145185;27;20413;-83
2024/01/25 13:21:32;;;;;;;34.30;8.30;;;;;;;;;;5093840;28;20916;-83
2024/01/25 13:24:00;;;;;;;36.27;8.40;;;;;;;;;;5084930;28;20884;-84
2024/01/25 13:26:27;;;;;;;32.95;8.73;;;;;;;;;;5086957;28;20403;-83
2024/01/25 13:28:53;;;;;;;27.70;7.97;;;;;;;;;;5109200;28;20407;-83
2024/01/25 13:31:19;;;;;;;31.95;7.93;;;;;;;;;;5075155;28;20548;-84
2024/01/25 13:33:46;;;;;;;35.00;8.10;;;;;;;;;;5088429;28;20427;-82
2024/01/25 13:36:14;;;;;;;32.15;7.57;;;;;;;;;;5127512;27;20418;-83
2024/01/25 13:38:43;;;;;;;30.63;8.07;;;;;;;;;;5082681;28;20469;-83
2024/01/25 13:41:09;;;;;;;34.30;7.28;;;;;;;;;;5145446;27;20479;-83
2024/01/25 13:43:35;;;;;;;32.40;7.40;;;;;;;;;;5100840;28;20939;-83
2024/01/25 13:46:01;;;;;;;32.05;7.25;;;;;;;;;;5104762;28;20398;-81
2024/01/25 13:48:27;;;;;;;31.25;8.07;;;;;;;;;;5100352;28;20410;-82
2024/01/25 13:50:53;;;;;;;30.13;7.22;;;;;;;;;;5091981;28;20441;-82
2024/01/25 13:53:19;;;;;;;33.70;8.10;;;;;;;;;;5140674;27;20404;-81
2024/01/25 13:55:45;;;;;;;34.85;7.88;;;;;;;;;;5098140;28;20904;-82
2024/01/25 13:58:14;;;;;;;33.45;7.97;;;;;;;;;;5089433;28;20444;-81
2024/01/25 14:00:40;;;;;;;29.90;8.10;;;;;;;;;;5095484;28;20492;-85
2024/01/25 14:03:06;;;;;;;34.20;8.63;;;;;;;;;;5111261;28;20967;-84
2024/01/25 14:05:32;;;;;;;35.30;7.85;;;;;;;;;;5089398;28;20902;-82
2024/01/25 14:07:59;;;;;;;36.35;8.23;;;;;;;;;;5123201;27;20417;-81
2024/01/25 14:10:27;;;;;;;31.40;7.45;;;;;;;;;;5105035;28;20422;-83
2024/01/25 14:12:54;;;;;;;31.92;7.53;;;;;;;;;;5105257;27;20400;-84
2024/01/25 14:15:20;;;;;;;33.93;8.00;;;;;;;;;;5126081;27;20400;-84
2024/01/25 14:17:46;;;;;;;37.60;7.63;;;;;;;;;;5109837;28;20428;-84
2024/01/25 14:20:13;;;;;;;32.05;8.05;;;;;;;;;;5092445;28;20398;-82
2024/01/25 14:22:39;;;;;;;34.17;8.00;;;;;;;;;;5107730;27;20421;-83
2024/01/25 14:25:05;;;;;;;36.30;8.38;;;;;;;;;;5108177;28;20484;-84
2024/01/25 14:27:32;;;;;;;38.28;8.05;;;;;;;;;;5091247;28;20400;-84